Time;durP1;ratioP1;P1;durP2;ratioP2;P2;SDS_P1;SDS_P2;PMS_P1;PMS_P2;Temp;Humidity;BMP_temperature;BMP_pressure;BME280_temperature;BME280_humidity;BME280_pressure;Samples;Min_cycle;Max_cycle;Signal;HPM_P1;HPM_P2
2021/08/23 00:01:57;;;;;;;24.17;17.98;;;20.40;99.90;;;;;;5051801;28;20032;-76
2021/08/23 00:04:23;;;;;;;22.73;17.20;;;20.40;99.90;;;;;;5069081;28;20469;-77
2021/08/23 00:06:49;;;;;;;26.05;18.77;;;20.40;99.90;;;;;;5068260;28;20029;-77
2021/08/23 00:09:14;;;;;;;26.27;18.95;;;20.50;99.90;;;;;;5069269;28;20397;-77
2021/08/23 00:11:40;;;;;;;26.48;19.50;;;20.50;99.90;;;;;;5066694;28;20033;-76
2021/08/23 00:14:05;;;;;;;27.73;19.17;;;20.40;99.90;;;;;;5070999;28;20048;-76
2021/08/23 00:16:31;;;;;;;29.45;18.85;;;20.40;99.90;;;;;;5058029;28;20016;-75
2021/08/23 00:18:57;;;;;;;24.20;19.23;;;20.40;99.90;;;;;;5066376;28;20025;-76
2021/08/23 00:21:24;;;;;;;22.83;18.98;;;20.50;99.90;;;;;;5069500;28;20036;-76
2021/08/23 00:23:54;;;;;;;28.17;20.38;;;20.40;99.90;;;;;;5066924;28;20082;-76
2021/08/23 00:26:21;;;;;;;28.05;19.23;;;20.40;99.90;;;;;;5071298;28;20111;-76
2021/08/23 00:28:47;;;;;;;29.50;20.58;;;20.40;99.90;;;;;;5072372;28;20035;-76
2021/08/23 00:31:13;;;;;;;25.48;19.40;;;20.40;99.90;;;;;;5069317;28;20024;-76
2021/08/23 00:33:39;;;;;;;26.65;19.50;;;20.50;99.90;;;;;;5071379;28;20040;-74
2021/08/23 00:36:05;;;;;;;27.48;19.10;;;20.40;99.90;;;;;;5065992;28;20017;-76
2021/08/23 00:38:30;;;;;;;25.52;19.23;;;20.40;99.90;;;;;;5070549;28;20064;-75
2021/08/23 00:40:56;;;;;;;28.83;19.85;;;20.40;99.90;;;;;;5053486;28;20060;-76
2021/08/23 00:43:22;;;;;;;24.17;18.60;;;20.40;99.90;;;;;;5073887;28;20035;-76
2021/08/23 00:45:47;;;;;;;25.88;19.90;;;20.40;99.90;;;;;;5069092;28;20074;-74
2021/08/23 00:48:13;;;;;;;22.70;18.65;;;20.40;99.90;;;;;;5068143;28;20100;-75
2021/08/23 00:50:39;;;;;;;22.25;17.52;;;20.30;99.90;;;;;;5066697;28;20077;-75
2021/08/23 00:53:05;;;;;;;24.67;20.42;;;20.30;99.90;;;;;;5069227;28;20040;-76
2021/08/23 00:55:32;;;;;;;25.77;19.02;;;20.40;99.90;;;;;;5071747;28;20032;-76
2021/08/23 00:57:59;;;;;;;25.23;19.08;;;20.30;99.90;;;;;;5063010;28;20507;-76
2021/08/23 01:00:25;;;;;;;22.20;18.58;;;20.30;99.90;;;;;;5068145;28;20029;-77
2021/08/23 01:03:13;;;;;;;23.17;19.23;;;20.40;99.90;;;;;;5068668;28;20024;-76
2021/08/23 01:05:40;;;;;;;21.92;17.05;;;20.40;99.90;;;;;;5068790;28;20108;-76
2021/08/23 01:08:32;;;;;;;21.63;19.23;;;20.40;99.90;;;;;;5066056;28;20102;-75
2021/08/23 01:11:02;;;;;;;22.58;17.35;;;20.40;99.90;;;;;;5053073;28;20518;-76
2021/08/23 01:13:31;;;;;;;23.00;18.73;;;20.30;99.90;;;;;;5064130;28;20028;-76
2021/08/23 01:15:56;;;;;;;24.77;20.38;;;20.30;99.90;;;;;;5069132;28;20012;-75
2021/08/23 01:18:23;;;;;;;23.98;17.77;;;20.30;99.90;;;;;;5068852;28;20127;-76
2021/08/23 01:20:51;;;;;;;23.75;17.17;;;20.30;99.90;;;;;;5069518;28;20028;-76
2021/08/23 01:23:17;;;;;;;23.23;19.15;;;20.30;99.90;;;;;;5070494;28;20028;-76
2021/08/23 01:25:46;;;;;;;21.30;18.08;;;20.40;99.90;;;;;;5063220;28;20096;-76
2021/08/23 01:28:26;;;;;;;19.67;16.67;;;20.40;99.90;;;;;;5067678;28;20012;-76
2021/08/23 01:30:57;;;;;;;25.13;17.48;;;20.30;99.90;;;;;;5062256;28;20024;-75
2021/08/23 01:33:23;;;;;;;20.38;17.92;;;20.30;99.90;;;;;;5061398;28;20041;-77
2021/08/23 01:35:49;;;;;;;22.35;18.48;;;20.40;99.90;;;;;;5070541;28;20075;-76
2021/08/23 01:38:15;;;;;;;21.75;19.02;;;20.40;99.90;;;;;;5069601;28;20021;-77
2021/08/23 01:40:40;;;;;;;24.38;18.13;;;20.40;99.90;;;;;;5067374;28;20431;-75
2021/08/23 01:43:06;;;;;;;19.85;17.70;;;20.40;99.90;;;;;;5052600;28;20471;-76
2021/08/23 01:45:32;;;;;;;24.23;18.60;;;20.40;99.90;;;;;;5065417;28;20057;-76
2021/08/23 01:47:57;;;;;;;25.00;17.77;;;20.50;99.90;;;;;;5044645;28;20013;-76
2021/08/23 01:50:23;;;;;;;23.42;18.10;;;20.50;99.90;;;;;;5065328;28;20028;-75
2021/08/23 01:52:49;;;;;;;28.05;20.27;;;20.50;99.90;;;;;;5065523;28;20043;-76
2021/08/23 01:55:14;;;;;;;22.95;18.65;;;20.50;99.90;;;;;;5060766;28;20096;-78
2021/08/23 01:57:40;;;;;;;26.38;18.45;;;20.50;99.90;;;;;;5068671;28;20074;-78
2021/08/23 02:00:06;;;;;;;22.05;17.85;;;20.50;99.90;;;;;;5067740;28;20013;-77
2021/08/23 02:02:31;;;;;;;22.38;18.10;;;20.50;99.90;;;;;;5071467;28;20017;-76
2021/08/23 02:04:57;;;;;;;25.67;20.75;;;20.50;99.90;;;;;;5066671;28;20028;-76
2021/08/23 02:07:23;;;;;;;27.70;20.70;;;20.50;99.90;;;;;;5066079;28;20024;-78
2021/08/23 02:09:48;;;;;;;22.90;18.98;;;20.50;99.90;;;;;;5068315;28;20024;-78
2021/08/23 02:12:14;;;;;;;24.17;21.05;;;20.50;99.90;;;;;;5070860;28;20282;-78
2021/08/23 02:14:40;;;;;;;21.90;18.83;;;20.60;99.90;;;;;;5070120;28;20079;-78
2021/08/23 02:17:06;;;;;;;26.02;21.77;;;20.60;99.90;;;;;;5068174;28;20633;-77
2021/08/23 02:19:31;;;;;;;27.50;21.40;;;20.60;99.90;;;;;;5069007;28;20025;-77
2021/08/23 02:21:57;;;;;;;27.67;22.20;;;20.60;99.90;;;;;;5068974;28;20547;-78
2021/08/23 02:24:23;;;;;;;29.05;23.23;;;20.60;99.90;;;;;;5063578;28;20021;-77
2021/08/23 02:26:50;;;;;;;48.20;29.13;;;20.60;99.90;;;;;;5063173;28;20024;-75
2021/08/23 02:29:16;;;;;;;28.95;22.40;;;20.60;99.90;;;;;;5065623;28;20040;-77
2021/08/23 02:31:41;;;;;;;27.38;21.90;;;20.60;99.90;;;;;;5064566;28;20056;-77
2021/08/23 02:34:07;;;;;;;27.02;20.65;;;20.50;99.90;;;;;;5067261;28;20032;-77
2021/08/23 02:36:34;;;;;;;34.50;25.00;;;20.50;99.90;;;;;;5060986;28;20024;-76
2021/08/23 02:38:59;;;;;;;30.40;22.23;;;20.60;99.90;;;;;;5065704;28;20028;-77
2021/08/23 02:41:25;;;;;;;28.92;22.75;;;20.50;99.90;;;;;;5066914;28;20477;-77
2021/08/23 02:43:51;;;;;;;28.83;21.73;;;20.50;99.90;;;;;;5069444;28;20020;-74
2021/08/23 02:46:16;;;;;;;24.80;21.20;;;20.50;99.90;;;;;;5064888;28;20036;-76
2021/08/23 02:48:44;;;;;;;28.30;21.05;;;20.50;99.90;;;;;;5061099;28;20024;-77
2021/08/23 02:51:11;;;;;;;27.77;23.45;;;20.50;99.90;;;;;;5061537;28;20512;-77
2021/08/23 02:53:37;;;;;;;29.27;21.80;;;20.50;99.90;;;;;;5065264;28;20028;-77
2021/08/23 02:56:02;;;;;;;29.50;22.40;;;20.50;99.90;;;;;;5068193;28;20037;-77
2021/08/23 02:58:28;;;;;;;27.70;23.63;;;20.50;99.90;;;;;;5063811;28;20017;-76
2021/08/23 03:00:53;;;;;;;29.20;23.52;;;20.50;99.90;;;;;;5058229;28;20377;-76
2021/08/23 03:03:19;;;;;;;29.80;22.65;;;20.40;99.90;;;;;;5058962;28;20485;-76
2021/08/23 03:05:45;;;;;;;36.70;24.95;;;20.40;99.90;;;;;;5061204;28;20031;-77
2021/08/23 03:08:10;;;;;;;27.38;22.33;;;20.40;99.90;;;;;;5064711;28;20031;-76
2021/08/23 03:10:36;;;;;;;28.73;22.20;;;20.40;99.90;;;;;;5059678;28;20409;-76
2021/08/23 03:13:01;;;;;;;27.88;22.73;;;20.40;99.90;;;;;;5066267;28;20024;-76
2021/08/23 03:15:27;;;;;;;26.58;21.88;;;20.40;99.90;;;;;;5062358;28;20021;-76
2021/08/23 03:17:52;;;;;;;66.35;28.75;;;20.40;99.90;;;;;;5057828;28;20053;-76
2021/08/23 03:20:18;;;;;;;36.55;25.60;;;20.20;99.90;;;;;;5054858;28;20032;-76
2021/08/23 03:22:44;;;;;;;30.42;23.20;;;20.20;99.90;;;;;;5060813;28;20516;-77
2021/08/23 03:25:09;;;;;;;30.90;25.30;;;20.10;99.90;;;;;;5066515;28;20394;-75
2021/08/23 03:27:35;;;;;;;42.60;28.02;;;20.10;99.90;;;;;;5068096;28;20036;-77
2021/08/23 03:30:01;;;;;;;35.70;25.20;;;20.00;99.90;;;;;;5073573;28;20027;-77
2021/08/23 03:32:26;;;;;;;41.50;27.65;;;20.00;99.90;;;;;;5073054;28;20477;-77
2021/08/23 03:34:52;;;;;;;29.70;22.52;;;20.00;99.90;;;;;;5070644;28;20424;-76
2021/08/23 03:37:18;;;;;;;35.35;25.40;;;20.00;99.90;;;;;;5067868;28;20029;-74
2021/08/23 03:39:43;;;;;;;31.50;23.33;;;20.00;99.90;;;;;;5065065;28;20021;-77
2021/08/23 03:42:09;;;;;;;30.85;23.05;;;20.00;99.90;;;;;;5068242;28;20031;-75
2021/08/23 03:44:34;;;;;;;26.25;21.85;;;20.00;99.90;;;;;;5072843;28;20089;-77
2021/08/23 03:47:00;;;;;;;33.38;21.13;;;19.90;99.90;;;;;;5070990;28;20070;-76
2021/08/23 03:49:26;;;;;;;32.15;23.88;;;19.90;99.90;;;;;;5065082;28;20029;-77
2021/08/23 03:51:51;;;;;;;32.20;22.55;;;20.00;99.90;;;;;;5063996;28;20025;-76
2021/08/23 03:54:17;;;;;;;30.95;25.10;;;20.00;99.90;;;;;;5070885;28;20040;-77
2021/08/23 03:56:42;;;;;;;27.85;22.17;;;20.00;99.90;;;;;;5064614;28;20025;-77
2021/08/23 03:59:08;;;;;;;30.08;21.90;;;20.00;99.90;;;;;;5068287;28;20024;-77
2021/08/23 04:01:34;;;;;;;31.42;22.17;;;20.10;99.90;;;;;;5068542;28;20036;-77
2021/08/23 04:03:59;;;;;;;25.17;20.58;;;20.10;99.90;;;;;;5066786;28;20021;-77
2021/08/23 04:06:25;;;;;;;28.48;21.77;;;20.10;99.90;;;;;;5068025;28;20087;-76
2021/08/23 04:08:50;;;;;;;39.65;26.77;;;20.10;99.90;;;;;;5064775;28;20238;-77
2021/08/23 04:11:17;;;;;;;35.20;23.73;;;20.10;99.90;;;;;;5070207;28;20025;-77
2021/08/23 04:13:43;;;;;;;32.25;23.80;;;20.10;99.90;;;;;;5067297;28;20064;-77
2021/08/23 04:16:13;;;;;;;36.60;26.20;;;20.00;99.90;;;;;;5070768;28;20028;-76
2021/08/23 04:18:40;;;;;;;40.47;25.73;;;19.90;99.90;;;;;;5064975;28;20051;-76
2021/08/23 04:21:06;;;;;;;35.22;24.38;;;19.80;99.90;;;;;;5051388;28;20419;-77
2021/08/23 04:23:32;;;;;;;38.40;25.88;;;19.80;99.90;;;;;;5066433;28;20028;-76
2021/08/23 04:25:57;;;;;;;35.50;25.85;;;19.80;99.90;;;;;;5070064;28;20023;-77
2021/08/23 04:28:23;;;;;;;50.53;29.45;;;19.70;99.90;;;;;;5071200;28;20162;-76
2021/08/23 04:30:48;;;;;;;37.95;26.73;;;19.80;99.90;;;;;;5071816;28;20029;-77
2021/08/23 04:33:16;;;;;;;39.45;27.05;;;19.80;99.90;;;;;;5066093;28;20020;-76
2021/08/23 04:35:42;;;;;;;35.10;25.60;;;19.70;99.90;;;;;;5065134;28;20118;-77
2021/08/23 04:38:07;;;;;;;39.85;27.65;;;19.80;99.90;;;;;;5064982;28;20105;-77
2021/08/23 04:40:33;;;;;;;42.00;28.55;;;19.80;99.90;;;;;;5049596;28;20029;-76
2021/08/23 04:42:59;;;;;;;43.47;28.40;;;19.80;99.90;;;;;;5071037;28;20024;-76
2021/08/23 04:45:25;;;;;;;45.97;29.40;;;19.80;99.90;;;;;;5070817;28;20040;-76
2021/08/23 04:47:51;;;;;;;44.25;28.85;;;19.80;99.90;;;;;;5074361;28;20020;-76
2021/08/23 04:50:16;;;;;;;40.83;28.35;;;19.90;99.90;;;;;;5069751;28;20028;-76
2021/08/23 04:52:43;;;;;;;43.80;29.27;;;19.80;99.90;;;;;;5069304;28;20041;-77
2021/08/23 04:55:09;;;;;;;39.42;26.85;;;19.80;99.90;;;;;;5063012;28;20523;-76
2021/08/23 04:57:35;;;;;;;39.13;27.63;;;19.90;99.90;;;;;;5064809;28;20529;-77
2021/08/23 05:00:01;;;;;;;38.60;27.05;;;19.90;99.90;;;;;;5061900;28;20112;-76
2021/08/23 05:02:27;;;;;;;44.08;29.27;;;19.90;99.90;;;;;;5070399;28;20043;-74
2021/08/23 05:04:53;;;;;;;41.47;29.83;;;19.90;99.90;;;;;;5062284;28;20477;-75
2021/08/23 05:07:18;;;;;;;38.78;28.70;;;19.90;99.90;;;;;;5069246;28;20039;-75
2021/08/23 05:09:44;;;;;;;42.65;30.08;;;19.90;99.90;;;;;;5068008;28;20091;-77
2021/08/23 05:12:10;;;;;;;40.92;29.73;;;19.90;99.90;;;;;;5069488;28;20039;-76
2021/08/23 05:14:35;;;;;;;45.65;30.75;;;19.90;99.90;;;;;;5066589;28;20037;-76
2021/08/23 05:17:01;;;;;;;42.55;29.33;;;19.90;99.90;;;;;;5064102;28;20056;-76
2021/08/23 05:19:26;;;;;;;75.30;35.33;;;19.90;99.90;;;;;;5068335;28;20376;-76
2021/08/23 05:21:52;;;;;;;52.58;32.25;;;19.90;99.90;;;;;;5067020;28;20484;-76
2021/08/23 05:24:18;;;;;;;43.78;31.25;;;19.90;99.90;;;;;;5068276;28;20029;-76
2021/08/23 05:26:43;;;;;;;45.90;30.73;;;19.90;99.90;;;;;;5047239;28;20043;-76
2021/08/23 05:29:09;;;;;;;49.58;32.88;;;20.00;99.90;;;;;;5065745;28;20013;-75
2021/08/23 05:31:34;;;;;;;44.65;30.55;;;20.00;99.90;;;;;;5076043;28;20032;-76
2021/08/23 05:34:00;;;;;;;57.25;36.78;;;20.00;99.90;;;;;;5070906;28;20033;-76
2021/08/23 05:36:26;;;;;;;50.42;35.28;;;20.00;99.90;;;;;;5063779;28;20147;-76
2021/08/23 05:38:51;;;;;;;53.95;33.15;;;19.90;99.90;;;;;;5064066;28;20048;-76
2021/08/23 05:41:17;;;;;;;68.07;39.20;;;19.90;99.90;;;;;;5066714;28;20021;-76
2021/08/23 05:43:43;;;;;;;59.72;35.40;;;19.90;99.90;;;;;;5071319;28;20024;-76
2021/08/23 05:46:11;;;;;;;54.60;34.42;;;19.90;99.90;;;;;;5066829;28;20020;-73
2021/08/23 05:48:36;;;;;;;50.75;36.17;;;19.80;99.90;;;;;;5062546;28;20078;-76
2021/08/23 05:51:02;;;;;;;112.13;44.63;;;19.90;99.90;;;;;;5065391;28;20021;-76
2021/08/23 05:53:28;;;;;;;52.45;35.45;;;19.90;99.90;;;;;;5071872;28;20037;-77
2021/08/23 05:55:54;;;;;;;75.93;44.35;;;19.90;99.90;;;;;;5067196;28;20035;-76
2021/08/23 05:58:20;;;;;;;96.55;55.55;;;19.80;99.90;;;;;;5060803;28;20112;-77
2021/08/23 06:00:46;;;;;;;65.15;39.47;;;19.70;99.90;;;;;;5065192;28;20100;-76
2021/08/23 06:03:12;;;;;;;100.93;45.78;;;19.70;99.90;;;;;;5069699;28;20036;-76
2021/08/23 06:05:38;;;;;;;205.70;96.25;;;19.80;99.90;;;;;;5063427;28;20517;-76
2021/08/23 06:08:06;;;;;;;73.85;41.33;;;19.80;99.90;;;;;;5065025;28;20421;-77
2021/08/23 06:10:32;;;;;;;67.45;41.00;;;19.90;99.90;;;;;;5061418;28;20033;-77
2021/08/23 06:12:58;;;;;;;69.05;45.03;;;19.80;99.90;;;;;;5056348;28;20051;-76
2021/08/23 06:15:23;;;;;;;79.63;47.92;;;19.90;99.90;;;;;;5060542;28;20021;-77
2021/08/23 06:17:49;;;;;;;62.80;41.45;;;20.00;99.90;;;;;;5068560;28;20546;-77
2021/08/23 06:20:15;;;;;;;71.90;41.60;;;20.00;99.90;;;;;;5054005;28;20407;-76
2021/08/23 06:22:43;;;;;;;60.95;38.85;;;20.00;99.90;;;;;;5071882;28;20055;-77
2021/08/23 06:25:09;;;;;;;75.13;41.70;;;20.00;99.90;;;;;;5066616;28;20051;-77
2021/08/23 06:27:35;;;;;;;70.13;42.30;;;19.90;99.90;;;;;;5070286;28;20119;-77
2021/08/23 06:30:02;;;;;;;82.95;43.75;;;19.90;99.90;;;;;;5049429;28;20155;-76
2021/08/23 06:32:28;;;;;;;67.03;40.70;;;19.90;99.90;;;;;;5066378;28;20028;-77
2021/08/23 06:34:54;;;;;;;60.75;39.03;;;19.90;99.90;;;;;;5062762;28;20058;-76
2021/08/23 06:37:20;;;;;;;81.18;44.88;;;20.00;99.90;;;;;;5068120;28;20536;-77
2021/08/23 06:39:47;;;;;;;73.15;41.80;;;19.90;99.90;;;;;;5067940;28;20024;-77
2021/08/23 06:42:12;;;;;;;94.50;48.22;;;20.00;99.90;;;;;;5065245;28;20032;-75
2021/08/23 06:44:40;;;;;;;65.78;42.10;;;19.90;99.90;;;;;;5070647;28;20025;-77
2021/08/23 06:47:05;;;;;;;75.15;41.70;;;19.90;99.90;;;;;;5071401;28;20024;-75
2021/08/23 06:49:31;;;;;;;66.57;41.30;;;19.90;99.90;;;;;;5069189;28;20051;-77
2021/08/23 06:51:56;;;;;;;73.45;41.65;;;19.90;99.90;;;;;;5070822;28;20071;-77
2021/08/23 06:54:23;;;;;;;72.22;42.40;;;20.00;99.90;;;;;;5069938;28;20040;-76
2021/08/23 06:56:48;;;;;;;74.70;40.95;;;20.00;99.90;;;;;;5069818;28;20017;-77
2021/08/23 06:59:14;;;;;;;70.30;40.58;;;20.00;99.90;;;;;;5065474;28;20122;-77
2021/08/23 07:01:40;;;;;;;66.00;39.70;;;20.00;99.90;;;;;;5064761;28;20021;-75
2021/08/23 07:04:08;;;;;;;72.45;42.45;;;20.10;99.90;;;;;;5064228;28;20433;-77
2021/08/23 07:06:34;;;;;;;63.00;39.88;;;20.10;99.90;;;;;;5061670;28;20067;-77
2021/08/23 07:09:00;;;;;;;60.67;39.40;;;20.10;99.90;;;;;;5069231;28;20052;-74
2021/08/23 07:11:25;;;;;;;66.53;40.55;;;20.10;99.90;;;;;;5061337;28;20061;-76
2021/08/23 07:13:51;;;;;;;76.68;41.97;;;20.10;99.90;;;;;;5064119;28;20455;-74
2021/08/23 07:16:17;;;;;;;64.65;39.33;;;20.00;99.90;;;;;;5063737;28;20481;-73
2021/08/23 07:18:42;;;;;;;67.35;40.13;;;19.90;99.90;;;;;;5072417;28;20031;-74
2021/08/23 07:21:08;;;;;;;60.05;36.47;;;19.80;99.90;;;;;;5067545;28;20024;-73
2021/08/23 07:23:34;;;;;;;59.97;36.67;;;19.90;99.90;;;;;;5061992;28;20103;-73
2021/08/23 07:25:59;;;;;;;58.78;34.10;;;19.90;99.90;;;;;;5066215;28;20056;-73
2021/08/23 07:28:26;;;;;;;65.25;36.92;;;19.80;99.90;;;;;;5068025;28;20037;-73
2021/08/23 07:30:51;;;;;;;68.38;38.05;;;19.90;99.90;;;;;;5055820;28;20029;-75
2021/08/23 07:33:17;;;;;;;58.72;32.97;;;19.90;99.90;;;;;;5065218;28;20108;-76
2021/08/23 07:35:43;;;;;;;60.63;36.38;;;19.90;99.90;;;;;;5062861;28;20093;-72
2021/08/23 07:38:09;;;;;;;75.82;39.33;;;20.00;99.90;;;;;;5067424;28;20021;-72
2021/08/23 07:40:34;;;;;;;64.30;36.92;;;19.80;99.90;;;;;;5072124;28;20035;-73
2021/08/23 07:43:00;;;;;;;55.30;35.60;;;19.70;99.90;;;;;;5070422;28;20025;-72
2021/08/23 07:45:26;;;;;;;55.95;33.58;;;19.80;99.90;;;;;;5068377;28;20143;-72
2021/08/23 07:47:52;;;;;;;61.63;36.25;;;19.80;99.90;;;;;;5065065;28;20097;-74
2021/08/23 07:50:18;;;;;;;61.17;36.65;;;19.80;99.90;;;;;;5071347;28;20448;-73
2021/08/23 07:52:44;;;;;;;64.07;38.05;;;19.70;99.90;;;;;;5070553;28;20135;-75
2021/08/23 07:55:11;;;;;;;68.47;37.33;;;19.80;99.90;;;;;;5065796;28;20017;-74
2021/08/23 07:57:48;;;;;;;71.15;36.17;;;19.80;99.90;;;;;;5069228;28;20109;-76
2021/08/23 08:00:16;;;;;;;57.33;34.72;;;19.80;99.90;;;;;;5066685;28;20032;-75
2021/08/23 08:02:42;;;;;;;74.57;40.83;;;19.80;99.90;;;;;;5064460;28;20107;-76
2021/08/23 08:05:08;;;;;;;55.90;34.10;;;19.80;99.90;;;;;;5068275;28;20139;-76
2021/08/23 08:07:34;;;;;;;61.60;36.75;;;19.90;99.90;;;;;;5064981;28;20025;-75
2021/08/23 08:10:00;;;;;;;57.88;34.90;;;19.90;99.90;;;;;;5067936;28;20417;-75
2021/08/23 08:12:26;;;;;;;58.22;36.03;;;20.00;99.90;;;;;;5072507;28;20035;-75
2021/08/23 08:14:54;;;;;;;57.17;35.67;;;20.00;99.90;;;;;;5070838;28;20036;-78
2021/08/23 08:17:22;;;;;;;56.22;33.45;;;20.00;99.90;;;;;;5059688;28;20066;-78
2021/08/23 08:19:48;;;;;;;58.08;35.80;;;20.00;99.90;;;;;;5064634;28;20016;-76
2021/08/23 08:22:15;;;;;;;57.97;33.92;;;19.90;99.90;;;;;;5067373;28;20036;-76
2021/08/23 08:24:41;;;;;;;53.15;34.08;;;20.00;99.90;;;;;;5069245;28;20013;-78
2021/08/23 08:27:07;;;;;;;58.88;33.22;;;20.00;99.90;;;;;;5055197;28;20199;-77
2021/08/23 08:29:33;;;;;;;53.72;32.92;;;20.00;99.90;;;;;;5067546;28;20021;-77
2021/08/23 08:31:58;;;;;;;50.08;32.35;;;19.90;99.90;;;;;;5065812;28;20107;-76
2021/08/23 08:34:24;;;;;;;55.60;32.35;;;20.00;99.90;;;;;;5068188;28;20036;-75
2021/08/23 08:36:50;;;;;;;46.80;29.70;;;20.10;99.90;;;;;;5072619;28;20534;-76
2021/08/23 08:39:15;;;;;;;46.20;29.15;;;20.20;99.90;;;;;;5067976;28;20033;-76
2021/08/23 08:41:41;;;;;;;46.85;29.50;;;20.20;99.90;;;;;;5068775;28;20524;-75
2021/08/23 08:44:06;;;;;;;49.50;30.95;;;20.30;99.90;;;;;;5071890;28;20095;-75
2021/08/23 08:46:36;;;;;;;46.05;29.95;;;20.30;99.90;;;;;;5063309;28;20526;-79
2021/08/23 08:49:04;;;;;;;42.42;27.52;;;20.30;99.90;;;;;;5069938;28;20037;-76
2021/08/23 08:51:31;;;;;;;41.58;27.55;;;20.40;99.90;;;;;;5052673;28;20059;-76
2021/08/23 08:53:56;;;;;;;36.67;26.25;;;20.40;99.90;;;;;;5069096;28;20036;-79
2021/08/23 08:56:22;;;;;;;39.72;27.75;;;20.50;99.90;;;;;;5063214;28;20473;-77
2021/08/23 08:58:47;;;;;;;41.25;27.52;;;20.50;99.90;;;;;;5050017;28;20028;-76
2021/08/23 09:01:13;;;;;;;38.67;26.10;;;20.40;99.90;;;;;;5067304;28;20031;-80
2021/08/23 09:03:45;;;;;;;47.35;29.95;;;20.50;99.90;;;;;;5063261;28;20036;-80
2021/08/23 09:06:10;;;;;;;38.22;25.77;;;20.60;99.90;;;;;;5048175;28;20021;-76
2021/08/23 09:08:44;;;;;;;31.10;25.50;;;20.50;99.90;;;;;;5043749;28;20097;-81
2021/08/23 09:11:14;;;;;;;30.48;23.55;;;20.60;99.90;;;;;;5047758;28;20032;-79
2021/08/23 09:13:55;;;;;;;31.42;22.83;;;20.50;99.90;;;;;;5052159;28;20268;-76
2021/08/23 09:16:29;;;;;;;32.28;24.55;;;20.60;99.90;;;;;;5071393;28;20012;-76
2021/08/23 09:18:55;;;;;;;30.60;22.42;;;20.60;99.90;;;;;;5050902;28;20044;-76
2021/08/23 09:21:33;;;;;;;31.88;23.33;;;20.60;99.90;;;;;;5067508;28;20056;-80
2021/08/23 09:23:59;;;;;;;29.02;20.92;;;20.70;99.90;;;;;;5065430;28;20381;-76
2021/08/23 09:26:31;;;;;;;25.85;20.63;;;20.70;99.90;;;;;;5067189;28;20032;-75
2021/08/23 09:29:06;;;;;;;26.33;21.42;;;20.70;99.90;;;;;;5067380;28;20012;-75
2021/08/23 09:31:35;;;;;;;29.98;22.80;;;20.70;99.90;;;;;;5045024;28;20033;-75
2021/08/23 09:34:03;;;;;;;29.60;21.85;;;20.60;99.90;;;;;;5051216;28;20029;-75
2021/08/23 09:36:29;;;;;;;29.95;23.00;;;20.70;99.90;;;;;;5062869;28;20021;-76
2021/08/23 09:38:56;;;;;;;30.38;22.77;;;20.70;99.90;;;;;;5063511;28;20017;-76
2021/08/23 09:41:25;;;;;;;27.35;21.75;;;20.70;99.90;;;;;;5066084;28;20044;-75
2021/08/23 09:44:05;;;;;;;29.35;23.60;;;20.70;99.90;;;;;;5063622;28;20066;-74
2021/08/23 09:46:34;;;;;;;29.27;20.33;;;20.70;99.90;;;;;;5065900;28;20020;-78
2021/08/23 09:49:03;;;;;;;25.42;21.30;;;20.70;99.90;;;;;;5070903;28;20046;-76
2021/08/23 09:51:39;;;;;;;21.80;17.63;;;20.80;99.90;;;;;;5059873;28;20485;-76
2021/08/23 09:54:16;;;;;;;23.90;19.20;;;20.80;99.90;;;;;;5057894;28;20069;-76
2021/08/23 09:56:50;;;;;;;29.42;21.08;;;20.90;99.90;;;;;;5045570;28;20237;-75
2021/08/23 09:59:21;;;;;;;23.27;19.60;;;21.00;99.90;;;;;;5045477;28;20037;-75
2021/08/23 10:01:49;;;;;;;26.23;19.33;;;21.00;99.90;;;;;;5064015;28;20025;-75
2021/08/23 10:04:17;;;;;;;19.23;16.02;;;21.10;99.90;;;;;;5052661;28;20020;-76
2021/08/23 10:06:45;;;;;;;19.17;16.58;;;21.20;99.90;;;;;;5047990;28;20024;-75
2021/08/23 10:09:16;;;;;;;21.08;16.08;;;21.20;99.90;;;;;;5060428;28;20029;-81
2021/08/23 10:11:42;;;;;;;17.88;14.88;;;21.20;99.90;;;;;;5053424;28;20032;-77
2021/08/23 10:14:08;;;;;;;16.40;14.60;;;21.20;99.90;;;;;;5052325;28;20476;-76
2021/08/23 10:16:35;;;;;;;19.42;14.57;;;21.10;99.90;;;;;;5065427;28;20021;-76
2021/08/23 10:19:02;;;;;;;19.02;15.02;;;21.00;99.90;;;;;;5068193;28;20028;-79
2021/08/23 10:21:29;;;;;;;23.25;16.17;;;21.00;99.90;;;;;;5062042;28;20350;-76
2021/08/23 10:23:56;;;;;;;18.48;14.23;;;21.00;99.90;;;;;;5047547;28;20024;-76
2021/08/23 10:26:22;;;;;;;20.35;15.80;;;21.00;99.90;;;;;;5066087;28;20055;-78
2021/08/23 10:28:48;;;;;;;19.48;15.63;;;21.10;99.90;;;;;;5066696;28;20058;-75
2021/08/23 10:31:16;;;;;;;19.48;13.73;;;21.20;99.90;;;;;;5064495;28;20021;-76
2021/08/23 10:33:43;;;;;;;16.17;14.20;;;21.20;99.90;;;;;;5058869;28;20047;-76
2021/08/23 10:36:13;;;;;;;16.50;13.63;;;21.20;99.90;;;;;;5062275;28;20421;-77
2021/08/23 10:38:46;;;;;;;17.60;13.20;;;21.10;99.90;;;;;;5065276;28;20075;-76
2021/08/23 10:41:26;;;;;;;17.85;13.77;;;21.00;99.90;;;;;;5049935;28;20066;-76
2021/08/23 10:43:57;;;;;;;16.23;13.45;;;20.90;99.90;;;;;;5065208;28;20507;-76
2021/08/23 10:46:24;;;;;;;19.45;13.85;;;21.00;99.90;;;;;;5048014;28;20025;-78
2021/08/23 10:48:52;;;;;;;15.32;12.77;;;20.90;99.90;;;;;;5064476;28;20032;-79
2021/08/23 10:51:36;;;;;;;17.98;13.63;;;21.00;99.90;;;;;;5053184;28;20021;-77
2021/08/23 10:54:08;;;;;;;12.63;11.20;;;21.00;99.90;;;;;;5049507;28;20066;-75
2021/08/23 10:56:40;;;;;;;12.77;10.73;;;21.20;99.90;;;;;;5043394;28;20037;-75
2021/08/23 10:59:17;;;;;;;11.70;10.45;;;21.30;99.90;;;;;;5064026;28;20025;-75
2021/08/23 11:01:56;;;;;;;16.50;10.82;;;21.40;99.90;;;;;;5066877;28;20018;-75
2021/08/23 11:04:34;;;;;;;13.13;11.73;;;21.60;99.90;;;;;;5062338;28;20021;-75
2021/08/23 11:07:01;;;;;;;12.10;10.55;;;21.50;99.90;;;;;;5046555;28;20029;-75
2021/08/23 11:09:45;;;;;;;11.15;9.77;;;21.50;99.90;;;;;;5061320;28;20021;-76
2021/08/23 11:12:13;;;;;;;14.52;8.77;;;21.80;99.90;;;;;;5056515;28;20059;-76
2021/08/23 11:14:48;;;;;;;13.45;8.98;;;21.80;99.90;;;;;;5045100;28;20917;-76
2021/08/23 11:17:25;;;;;;;12.70;9.15;;;21.80;99.90;;;;;;5061346;28;20515;-76
2021/08/23 11:19:51;;;;;;;12.40;9.70;;;21.70;99.90;;;;;;5069235;28;20481;-75
2021/08/23 11:22:18;;;;;;;12.93;10.55;;;21.70;99.90;;;;;;5065641;28;20067;-75
2021/08/23 11:24:43;;;;;;;11.55;9.25;;;21.60;99.90;;;;;;5058398;28;20051;-79
2021/08/23 11:27:09;;;;;;;12.65;9.82;;;21.60;99.90;;;;;;5066804;28;20473;-78
2021/08/23 11:29:38;;;;;;;10.70;8.40;;;21.50;99.90;;;;;;5063765;28;20541;-75
2021/08/23 11:32:07;;;;;;;11.15;8.52;;;21.60;99.90;;;;;;5064853;28;20536;-76
2021/08/23 11:34:34;;;;;;;14.23;9.88;;;21.70;99.90;;;;;;5066614;28;20046;-74
2021/08/23 11:37:06;;;;;;;12.63;8.80;;;21.60;99.90;;;;;;5063940;28;20082;-78
2021/08/23 11:39:33;;;;;;;11.40;9.50;;;21.60;99.90;;;;;;5059673;28;20545;-76
2021/08/23 11:42:04;;;;;;;10.10;8.68;;;21.60;99.90;;;;;;5068818;28;20034;-74
2021/08/23 11:44:31;;;;;;;13.25;8.95;;;21.50;99.90;;;;;;5065285;28;20030;-79
2021/08/23 11:46:58;;;;;;;14.77;9.27;;;21.40;99.90;;;;;;5060098;28;20373;-76
2021/08/23 11:49:32;;;;;;;11.95;8.90;;;21.50;99.90;;;;;;5067218;28;20410;-77
2021/08/23 11:52:09;;;;;;;15.05;9.30;;;21.60;99.90;;;;;;5052480;28;20103;-76
2021/08/23 11:54:35;;;;;;;15.60;8.68;;;21.50;99.90;;;;;;5070260;28;20120;-78
2021/08/23 11:57:05;;;;;;;14.57;9.73;;;21.60;99.90;;;;;;5072360;28;20029;-77
2021/08/23 11:59:31;;;;;;;10.68;8.88;;;21.60;99.90;;;;;;5067730;28;20057;-76
2021/08/23 12:02:07;;;;;;;11.43;9.25;;;21.60;99.90;;;;;;5065081;28;20381;-76
2021/08/23 12:04:33;;;;;;;11.65;9.13;;;21.60;99.90;;;;;;5070812;28;20036;-79
2021/08/23 12:06:59;;;;;;;11.02;9.15;;;21.60;99.90;;;;;;5069156;28;20056;-79
2021/08/23 12:09:25;;;;;;;12.82;8.30;;;21.80;99.90;;;;;;5070947;28;20110;-77
2021/08/23 12:11:50;;;;;;;9.65;8.07;;;21.80;99.90;;;;;;5064960;28;20022;-76
2021/08/23 12:14:21;;;;;;;14.82;9.10;;;22.00;99.90;;;;;;5054888;28;20123;-78
2021/08/23 12:16:48;;;;;;;9.73;8.00;;;21.90;99.90;;;;;;5054540;28;20051;-79
2021/08/23 12:19:15;;;;;;;13.05;8.77;;;22.10;99.90;;;;;;5068010;28;20020;-79
2021/08/23 12:21:42;;;;;;;11.68;9.02;;;22.10;99.90;;;;;;5066310;28;20028;-74
2021/08/23 12:24:21;;;;;;;10.85;8.13;;;22.10;99.90;;;;;;5063705;28;20553;-76
2021/08/23 12:27:02;;;;;;;13.57;9.15;;;22.10;99.90;;;;;;5056254;28;20036;-75
2021/08/23 12:29:38;;;;;;;11.98;8.77;;;22.30;99.90;;;;;;5060961;28;20068;-75